Time,TemperatureF,DewpointF,PressureIn,WindDirection,WindDirectionDegrees,WindSpeedMPH,WindSpeedGustMPH,Humidity,HourlyPrecipIn,Conditions,Clouds,dailyrainin,SolarRadiationWatts/m^2,SoftwareType,DateUTC
2013-02-05 00:02:00,25.4,21.0,29.93,West,279,3.3,3.6,90,0.00,,,0.00,0,TxWx,2013-02-05 06:02:00,
2013-02-05 00:08:00,25.4,21.0,29.92,WNW,299,4.5,4.5,90,0.00,,,0.00,0,TxWx,2013-02-05 06:08:00,
2013-02-05 00:13:00,25.2,21.0,29.93,WNW,288,4.8,4.8,90,0.00,,,0.00,0,TxWx,2013-02-05 06:13:00,
2013-02-05 00:18:00,25.2,21.0,29.93,WNW,296,3.0,3.6,90,0.00,,,0.00,0,TxWx,2013-02-05 06:18:00,
2013-02-05 00:23:00,25.1,21.0,29.93,WNW,290,2.4,3.0,90,0.00,,,0.00,0,TxWx,2013-02-05 06:23:00,
2013-02-05 00:28:00,24.9,22.0,29.92,NNW,342,5.4,5.7,91,0.00,,,0.00,0,TxWx,2013-02-05 06:28:00,
2013-02-05 00:34:00,24.9,22.0,29.93,NW,314,4.2,5.1,91,0.00,,,0.00,0,TxWx,2013-02-05 06:34:00,
2013-02-05 00:39:00,24.8,22.0,29.92,WNW,295,2.7,2.7,91,0.00,,,0.00,0,TxWx,2013-02-05 06:39:00,
2013-02-05 00:44:00,24.7,22.0,29.92,NW,321,2.4,2.4,91,0.00,,,0.00,0,TxWx,2013-02-05 06:44:00,
2013-02-05 00:49:00,24.6,22.0,29.91,West,273,2.7,3.0,91,0.00,,,0.00,0,TxWx,2013-02-05 06:49:00,
2013-02-05 00:54:00,24.5,22.0,29.91,NW,304,3.0,3.0,91,0.00,,,0.00,0,TxWx,2013-02-05 06:54:00,
2013-02-05 01:00:00,24.5,21.0,29.91,NW,307,3.3,3.3,91,0.00,,,0.00,0,TxWx,2013-02-05 07:00:00,
2013-02-05 01:05:00,24.4,21.0,29.91,WNW,290,1.5,1.5,91,0.00,,,0.00,0,TxWx,2013-02-05 07:05:00,
2013-02-05 01:10:00,24.3,21.0,29.91,WNW,296,3.3,3.9,91,0.00,,,0.00,0,TxWx,2013-02-05 07:10:00,
2013-02-05 01:15:00,24.2,21.0,29.91,NNW,341,2.1,2.7,91,0.00,,,0.00,0,TxWx,2013-02-05 07:15:00,
2013-02-05 01:21:00,24.0,21.0,29.91,North,350,2.4,2.4,91,0.00,,,0.00,0,TxWx,2013-02-05 07:21:00,
2013-02-05 01:26:00,23.9,21.0,29.91,WNW,295,0.9,1.5,91,0.00,,,0.00,0,TxWx,2013-02-05 07:26:00,
2013-02-05 01:31:00,23.8,21.0,29.90,WNW,287,2.7,2.7,91,0.00,,,0.00,0,TxWx,2013-02-05 07:31:00,
2013-02-05 01:36:00,23.7,21.0,29.91,WNW,295,2.7,2.7,91,0.00,,,0.00,0,TxWx,2013-02-05 07:36:00,
2013-02-05 01:41:00,23.6,21.0,29.91,West,264,2.1,2.7,91,0.00,,,0.00,0,TxWx,2013-02-05 07:41:00,
2013-02-05 01:47:00,23.6,21.0,29.91,NW,318,4.8,5.4,91,0.00,,,0.00,0,TxWx,2013-02-05 07:47:00,
2013-02-05 01:52:00,23.6,21.0,29.92,West,269,1.2,1.2,91,0.00,,,0.00,0,TxWx,2013-02-05 07:52:00,
2013-02-05 01:57:00,23.6,21.0,29.91,WNW,290,3.0,3.0,91,0.00,,,0.00,0,TxWx,2013-02-05 07:57:00,
2013-02-05 02:02:00,23.4,20.0,29.91,WNW,295,2.7,2.7,91,0.00,,,0.00,0,TxWx,2013-02-05 08:02:00,
2013-02-05 02:07:00,23.4,20.0,29.91,WNW,296,2.7,3.0,91,0.00,,,0.00,0,TxWx,2013-02-05 08:07:00,
2013-02-05 02:13:00,23.2,20.0,29.91,WNW,291,1.8,1.8,91,0.00,,,0.00,0,TxWx,2013-02-05 08:13:00,
2013-02-05 02:18:00,23.0,20.0,29.91,West,277,3.3,3.9,91,0.00,,,0.00,0,TxWx,2013-02-05 08:18:00,
2013-02-05 02:23:00,22.9,20.0,29.91,WNW,288,2.4,3.3,92,0.00,,,0.00,0,TxWx,2013-02-05 08:23:00,
2013-02-05 02:28:00,22.8,20.0,29.90,WNW,291,1.8,1.8,92,0.00,,,0.00,0,TxWx,2013-02-05 08:28:00,
2013-02-05 02:33:00,22.7,20.0,29.90,West,276,2.4,2.4,92,0.00,,,0.00,0,TxWx,2013-02-05 08:33:00,
2013-02-05 02:39:00,22.6,20.0,29.91,West,277,3.0,3.3,92,0.00,,,0.00,0,TxWx,2013-02-05 08:39:00,
2013-02-05 02:44:00,22.5,20.0,29.90,WNW,291,4.5,4.8,92,0.00,,,0.00,0,TxWx,2013-02-05 08:44:00,
2013-02-05 02:49:00,22.5,19.0,29.91,SW,228,0.9,0.9,92,0.00,,,0.00,0,TxWx,2013-02-05 08:49:00,
2013-02-05 02:54:00,22.2,19.0,29.91,SSW,206,2.4,2.4,92,0.00,,,0.00,0,TxWx,2013-02-05 08:54:00,
2013-02-05 02:59:00,22.1,19.0,29.90,SSW,198,1.5,1.8,92,0.00,,,0.00,0,TxWx,2013-02-05 08:59:00,
2013-02-05 03:04:00,21.9,19.0,29.90,SSW,207,1.2,1.2,92,0.00,,,0.00,0,TxWx,2013-02-05 09:04:00,
2013-02-05 03:09:00,21.8,19.0,29.90,SSW,206,0.3,0.3,92,0.00,,,0.00,0,TxWx,2013-02-05 09:09:00,
2013-02-05 03:14:00,21.6,19.0,29.90,SW,228,0.0,0.0,92,0.00,,,0.00,0,TxWx,2013-02-05 09:14:00,
2013-02-05 03:19:00,21.2,18.0,29.89,SE,144,1.2,1.2,92,0.00,,,0.00,0,TxWx,2013-02-05 09:19:00,
2013-02-05 03:25:00,21.1,18.0,29.89,SSE,161,0.6,0.6,93,0.00,,,0.00,0,TxWx,2013-02-05 09:25:00,
2013-02-05 03:30:00,21.0,18.0,29.89,SSW,209,2.4,2.7,93,0.00,,,0.00,0,TxWx,2013-02-05 09:30:00,
2013-02-05 03:35:00,20.5,18.0,29.89,SSW,204,2.7,2.7,93,0.00,,,0.00,0,TxWx,2013-02-05 09:35:00,
2013-02-05 03:40:00,20.5,18.0,29.88,SSW,192,2.1,2.1,93,0.00,,,0.00,0,TxWx,2013-02-05 09:40:00,
2013-02-05 03:45:00,20.5,18.0,29.88,SW,217,1.2,1.2,94,0.00,,,0.00,0,TxWx,2013-02-05 09:45:00,
2013-02-05 03:50:00,20.4,17.0,29.88,SSW,200,3.0,3.0,94,0.00,,,0.00,0,TxWx,2013-02-05 09:50:00,
2013-02-05 03:55:00,20.1,17.0,29.89,SSW,206,2.4,3.0,94,0.00,,,0.00,0,TxWx,2013-02-05 09:55:00,
2013-02-05 04:01:00,20.1,18.0,29.89,SSW,207,3.0,3.0,94,0.00,,,0.00,0,TxWx,2013-02-05 10:01:00,
2013-02-05 04:06:00,19.9,18.0,29.89,SSW,204,1.5,1.8,94,0.00,,,0.00,0,TxWx,2013-02-05 10:06:00,
2013-02-05 04:11:00,20.0,18.0,29.90,SW,215,2.1,2.4,95,0.00,,,0.00,0,TxWx,2013-02-05 10:11:00,
2013-02-05 04:16:00,20.1,18.0,29.90,WSW,249,2.1,2.1,95,0.00,,,0.00,0,TxWx,2013-02-05 10:16:00,
2013-02-05 04:21:00,20.3,18.0,29.91,West,271,0.9,1.2,95,0.00,,,0.00,0,TxWx,2013-02-05 10:21:00,
2013-02-05 04:27:00,20.3,18.0,29.91,SW,230,2.7,2.7,95,0.00,,,0.00,0,TxWx,2013-02-05 10:27:00,
2013-02-05 04:32:00,20.3,18.0,29.90,SSW,210,0.9,1.2,95,0.00,,,0.00,0,TxWx,2013-02-05 10:32:00,
2013-02-05 04:37:00,20.3,18.0,29.90,SSW,212,2.7,2.7,95,0.00,,,0.00,0,TxWx,2013-02-05 10:37:00,
2013-02-05 04:42:00,20.3,18.0,29.90,SSW,204,2.4,2.7,95,0.00,,,0.00,0,TxWx,2013-02-05 10:42:00,
2013-02-05 04:47:00,20.2,18.0,29.90,SSW,205,2.7,2.7,95,0.00,,,0.00,0,TxWx,2013-02-05 10:47:00,
2013-02-05 04:53:00,20.3,18.0,29.89,SSW,211,1.5,1.8,95,0.00,,,0.00,0,TxWx,2013-02-05 10:53:00,
2013-02-05 04:58:00,20.2,18.0,29.89,SSW,196,1.5,1.5,95,0.00,,,0.00,0,TxWx,2013-02-05 10:58:00,
2013-02-05 05:03:00,20.2,18.0,29.89,South,182,0.6,0.6,95,0.00,,,0.00,0,TxWx,2013-02-05 11:03:00,
2013-02-05 05:08:00,20.1,18.0,29.89,SSW,205,2.1,2.1,95,0.00,,,0.00,0,TxWx,2013-02-05 11:08:00,
2013-02-05 05:14:00,20.1,18.0,29.89,WSW,243,1.5,1.5,95,0.00,,,0.00,0,TxWx,2013-02-05 11:14:00,
2013-02-05 05:19:00,20.3,18.0,29.90,SW,230,2.1,2.4,95,0.00,,,0.00,0,TxWx,2013-02-05 11:19:00,
2013-02-05 05:24:00,20.5,18.0,29.90,West,259,3.9,4.2,95,0.00,,,0.00,0,TxWx,2013-02-05 11:24:00,
2013-02-05 05:29:00,20.5,18.0,29.90,WSW,243,1.5,1.8,95,0.00,,,0.00,0,TxWx,2013-02-05 11:29:00,
2013-02-05 05:34:00,20.4,18.0,29.89,SSW,212,1.5,1.5,95,0.00,,,0.00,0,TxWx,2013-02-05 11:34:00,
2013-02-05 05:40:00,20.2,18.0,29.89,SSW,197,0.3,0.9,95,0.00,,,0.00,0,TxWx,2013-02-05 11:40:00,
2013-02-05 05:45:00,20.2,18.0,29.89,SSW,192,0.0,0.0,95,0.00,,,0.00,0,TxWx,2013-02-05 11:45:00,
2013-02-05 05:50:00,20.0,18.0,29.89,SSW,207,2.4,2.4,95,0.00,,,0.00,0,TxWx,2013-02-05 11:50:00,
2013-02-05 05:55:00,19.8,18.0,29.89,SSW,208,2.4,2.4,95,0.00,,,0.00,0,TxWx,2013-02-05 11:55:00,
2013-02-05 06:00:00,19.6,18.0,29.90,SW,234,0.9,1.2,95,0.00,,,0.00,0,TxWx,2013-02-05 12:00:00,
2013-02-05 06:05:00,19.6,18.0,29.90,SW,225,2.1,2.1,95,0.00,,,0.00,0,TxWx,2013-02-05 12:05:00,
2013-02-05 06:11:00,19.7,18.0,29.90,SSW,198,2.1,2.1,95,0.00,,,0.00,0,TxWx,2013-02-05 12:11:00,
2013-02-05 06:16:00,19.7,18.0,29.89,South,184,3.0,3.0,95,0.00,,,0.00,0,TxWx,2013-02-05 12:16:00,
2013-02-05 06:21:00,19.6,18.0,29.89,SSW,193,2.4,2.4,95,0.00,,,0.00,0,TxWx,2013-02-05 12:21:00,
2013-02-05 06:26:00,19.4,17.0,29.89,SSW,201,3.0,3.0,95,0.00,,,0.00,0,TxWx,2013-02-05 12:26:00,
2013-02-05 06:31:00,19.3,17.0,29.89,SSW,206,0.9,0.9,95,0.00,,,0.00,0,TxWx,2013-02-05 12:31:00,
2013-02-05 06:36:00,19.3,17.0,29.90,SW,221,3.3,3.3,95,0.00,,,0.00,0,TxWx,2013-02-05 12:36:00,
2013-02-05 06:42:00,19.4,17.0,29.90,SW,228,3.3,3.6,95,0.00,,,0.00,0,TxWx,2013-02-05 12:42:00,
2013-02-05 06:47:00,19.5,18.0,29.90,WSW,242,3.6,3.6,95,0.00,,,0.00,0,TxWx,2013-02-05 12:47:00,
2013-02-05 06:52:00,19.7,18.0,29.91,SW,236,5.4,5.4,95,0.00,,,0.00,1,TxWx,2013-02-05 12:52:00,
2013-02-05 06:57:00,19.7,18.0,29.91,WSW,252,3.9,4.5,95,0.00,,,0.00,2,TxWx,2013-02-05 12:57:00,
2013-02-05 07:02:00,19.6,18.0,29.91,WSW,251,3.6,4.2,95,0.00,,,0.00,8,TxWx,2013-02-05 13:02:00,
2013-02-05 07:08:00,19.7,18.0,29.91,SSW,209,5.4,5.4,95,0.00,,,0.00,4,TxWx,2013-02-05 13:08:00,
2013-02-05 07:13:00,19.9,18.0,29.91,SW,229,2.7,2.7,95,0.00,,,0.00,5,TxWx,2013-02-05 13:13:00,
2013-02-05 07:18:00,20.0,18.0,29.91,SW,235,0.9,1.2,95,0.00,,,0.00,9,TxWx,2013-02-05 13:18:00,
2013-02-05 07:23:00,20.1,18.0,29.90,SW,233,1.8,1.8,95,0.00,,,0.00,12,TxWx,2013-02-05 13:23:00,
2013-02-05 07:29:00,20.3,18.0,29.91,SSW,199,0.9,0.9,95,0.00,,,0.00,19,TxWx,2013-02-05 13:29:00,
2013-02-05 07:34:00,20.4,18.0,29.90,SSW,210,4.8,4.8,95,0.00,,,0.00,29,TxWx,2013-02-05 13:34:00,
2013-02-05 07:39:00,20.5,19.0,29.90,South,188,2.1,2.1,95,0.00,,,0.00,40,TxWx,2013-02-05 13:39:00,
2013-02-05 07:44:00,20.6,19.0,29.90,SSW,201,3.3,4.5,95,0.00,,,0.00,57,TxWx,2013-02-05 13:44:00,
2013-02-05 07:50:00,20.7,19.0,29.90,SSW,196,3.9,4.2,95,0.00,,,0.00,61,TxWx,2013-02-05 13:50:00,
2013-02-05 07:55:00,20.7,19.0,29.91,WSW,248,6.6,6.6,95,0.00,,,0.00,40,TxWx,2013-02-05 13:55:00,
2013-02-05 08:00:00,20.7,19.0,29.91,SW,233,6.6,7.5,95,0.00,,,0.00,41,TxWx,2013-02-05 14:00:00,
2013-02-05 08:05:00,20.5,19.0,29.90,SSW,199,4.2,4.5,95,0.00,,,0.00,68,TxWx,2013-02-05 14:05:00,
2013-02-05 08:10:00,20.8,19.0,29.90,SSW,203,3.3,3.3,96,0.00,,,0.00,80,TxWx,2013-02-05 14:10:00,
2013-02-05 08:16:00,20.9,19.0,29.90,SW,223,3.3,4.2,96,0.00,,,0.00,93,TxWx,2013-02-05 14:16:00,
2013-02-05 08:21:00,21.0,19.0,29.90,SW,224,5.7,6.6,95,0.00,,,0.00,91,TxWx,2013-02-05 14:21:00,
2013-02-05 08:26:00,21.0,19.0,29.90,SSW,200,7.5,7.8,95,0.00,,,0.00,128,TxWx,2013-02-05 14:26:00,
2013-02-05 08:31:00,21.3,19.0,29.90,SSW,205,3.9,4.2,95,0.00,,,0.00,109,TxWx,2013-02-05 14:31:00,
2013-02-05 08:37:00,21.4,19.0,29.89,SSW,195,5.1,5.4,95,0.00,,,0.00,128,TxWx,2013-02-05 14:37:00,
2013-02-05 08:42:00,21.6,20.0,29.89,SSW,206,4.2,4.8,95,0.00,,,0.00,121,TxWx,2013-02-05 14:42:00,
2013-02-05 08:47:00,21.8,20.0,29.88,South,184,6.6,7.2,95,0.00,,,0.00,133,TxWx,2013-02-05 14:47:00,
2013-02-05 08:53:00,22.0,20.0,29.88,South,191,7.2,8.4,95,0.00,,,0.00,169,TxWx,2013-02-05 14:53:00,
2013-02-05 08:58:00,22.2,20.0,29.88,SSW,203,6.6,6.6,95,0.00,,,0.00,211,TxWx,2013-02-05 14:58:00,
2013-02-05 09:03:00,22.6,21.0,29.87,SSE,167,5.7,6.3,95,0.00,,,0.00,188,TxWx,2013-02-05 15:03:00,
2013-02-05 09:08:00,23.0,21.0,29.87,SSE,160,3.3,3.6,95,0.00,,,0.00,180,TxWx,2013-02-05 15:08:00,
2013-02-05 09:14:00,23.4,21.0,29.87,SSE,155,4.2,4.5,94,0.00,,,0.00,226,TxWx,2013-02-05 15:14:00,
2013-02-05 09:19:00,23.8,22.0,29.86,SSW,210,7.2,7.2,94,0.00,,,0.00,234,TxWx,2013-02-05 15:19:00,
2013-02-05 09:24:00,24.1,21.0,29.85,South,185,9.6,10.8,94,0.00,,,0.00,216,TxWx,2013-02-05 15:24:00,
2013-02-05 09:29:00,24.3,21.0,29.85,SW,235,10.2,12.6,93,0.00,,,0.00,196,TxWx,2013-02-05 15:29:00,
2013-02-05 09:35:00,24.6,22.0,29.85,South,188,9.9,10.2,93,0.00,,,0.00,227,TxWx,2013-02-05 15:35:00,
2013-02-05 09:40:00,25.0,22.0,29.86,SW,217,9.0,9.0,92,0.00,,,0.00,229,TxWx,2013-02-05 15:40:00,
2013-02-05 09:45:00,25.2,22.0,29.85,South,180,6.3,6.9,92,0.00,,,0.00,161,TxWx,2013-02-05 15:45:00,
2013-02-05 09:50:00,25.5,22.0,29.85,SSW,205,15.0,15.0,91,0.00,,,0.00,225,TxWx,2013-02-05 15:50:00,
2013-02-05 09:56:00,25.7,23.0,29.85,South,189,4.5,5.4,91,0.00,,,0.00,210,TxWx,2013-02-05 15:56:00,
2013-02-05 10:01:00,26.0,22.0,29.85,South,179,4.5,4.5,90,0.00,,,0.00,220,TxWx,2013-02-05 16:01:00,
2013-02-05 10:06:00,26.6,23.0,29.85,SSW,213,3.6,3.6,89,0.00,,,0.00,357,TxWx,2013-02-05 16:06:00,
2013-02-05 10:11:00,26.5,23.0,29.85,South,182,9.9,9.9,88,0.00,,,0.00,290,TxWx,2013-02-05 16:11:00,
2013-02-05 10:17:00,26.9,23.0,29.85,SSW,192,13.5,13.5,88,0.00,,,0.00,372,TxWx,2013-02-05 16:17:00,
2013-02-05 10:22:00,27.2,23.0,29.85,SSW,209,10.2,11.1,87,0.00,,,0.00,368,TxWx,2013-02-05 16:22:00,
2013-02-05 10:27:00,27.2,22.0,29.85,SW,214,7.5,9.0,86,0.00,,,0.00,411,TxWx,2013-02-05 16:27:00,
2013-02-05 10:32:00,27.6,23.0,29.85,SSW,212,7.8,7.8,86,0.00,,,0.00,350,TxWx,2013-02-05 16:32:00,
2013-02-05 10:37:00,27.4,22.0,29.85,SSW,201,15.0,15.6,86,0.00,,,0.00,265,TxWx,2013-02-05 16:37:00,
2013-02-05 10:42:00,27.7,23.0,29.85,SSW,198,15.9,15.9,86,0.00,,,0.00,477,TxWx,2013-02-05 16:42:00,
2013-02-05 10:47:00,27.7,23.0,29.85,SSE,157,9.9,9.9,85,0.00,,,0.00,382,TxWx,2013-02-05 16:47:00,
2013-02-05 10:53:00,28.1,23.0,29.84,SSW,210,10.8,12.6,85,0.00,,,0.00,388,TxWx,2013-02-05 16:53:00,
2013-02-05 10:58:00,28.4,23.0,29.84,SSW,211,8.1,8.1,84,0.00,,,0.00,333,TxWx,2013-02-05 16:58:00,
2013-02-05 11:03:00,28.0,23.0,29.84,SW,231,8.7,9.6,84,0.00,,,0.00,365,TxWx,2013-02-05 17:03:00,
2013-02-05 11:08:00,28.4,23.0,29.83,SSW,204,9.0,9.3,85,0.00,,,0.00,317,TxWx,2013-02-05 17:08:00,
2013-02-05 11:14:00,28.6,24.0,29.83,SSW,212,13.8,14.1,85,0.00,,,0.00,434,TxWx,2013-02-05 17:14:00,
2013-02-05 11:19:00,28.7,24.0,29.83,SSW,209,8.1,8.1,84,0.00,,,0.00,235,TxWx,2013-02-05 17:19:00,
2013-02-05 11:24:00,28.4,23.0,29.83,WSW,237,12.0,12.6,84,0.00,,,0.00,280,TxWx,2013-02-05 17:24:00,
2013-02-05 11:29:00,28.7,24.0,29.83,SSW,209,8.7,9.0,85,0.00,,,0.00,233,TxWx,2013-02-05 17:29:00,
2013-02-05 11:34:00,28.8,24.0,29.82,SW,221,6.0,7.2,85,0.00,,,0.00,228,TxWx,2013-02-05 17:34:00,
2013-02-05 11:40:00,29.0,24.0,29.82,SSW,197,5.4,7.2,85,0.00,,,0.00,386,TxWx,2013-02-05 17:40:00,
2013-02-05 11:45:00,29.3,24.0,29.81,WSW,248,9.0,9.3,84,0.00,,,0.00,302,TxWx,2013-02-05 17:45:00,
2013-02-05 11:50:00,29.7,25.0,29.81,SSW,196,7.2,7.5,84,0.00,,,0.00,323,TxWx,2013-02-05 17:50:00,
2013-02-05 11:55:00,29.5,24.0,29.81,SW,216,5.7,6.0,83,0.00,,,0.00,293,TxWx,2013-02-05 17:55:00,
2013-02-05 12:00:00,29.7,24.0,29.81,WSW,251,8.1,8.1,83,0.00,,,0.00,313,TxWx,2013-02-05 18:00:00,
2013-02-05 12:06:00,29.7,24.0,29.81,WSW,239,9.3,9.3,83,0.00,,,0.00,271,TxWx,2013-02-05 18:06:00,
2013-02-05 12:11:00,29.8,24.0,29.80,SSW,206,11.7,11.7,83,0.00,,,0.00,246,TxWx,2013-02-05 18:11:00,
2013-02-05 12:16:00,29.8,24.0,29.80,South,170,9.9,11.1,82,0.00,,,0.00,247,TxWx,2013-02-05 18:16:00,
2013-02-05 12:21:00,30.1,24.0,29.80,SW,222,7.5,7.8,83,0.00,,,0.00,194,TxWx,2013-02-05 18:21:00,
2013-02-05 12:26:00,30.0,24.0,29.81,WSW,242,7.2,7.2,82,0.00,,,0.00,209,TxWx,2013-02-05 18:26:00,
2013-02-05 12:32:00,30.2,24.0,29.80,WSW,243,4.5,5.4,82,0.00,,,0.00,221,TxWx,2013-02-05 18:32:00,
2013-02-05 12:37:00,30.3,24.0,29.80,WSW,244,6.9,6.9,82,0.00,,,0.00,206,TxWx,2013-02-05 18:37:00,
2013-02-05 12:42:00,30.3,24.0,29.80,SW,217,9.6,9.6,82,0.00,,,0.00,180,TxWx,2013-02-05 18:42:00,
2013-02-05 12:48:00,30.4,24.0,29.80,West,263,8.1,8.1,82,0.00,,,0.00,170,TxWx,2013-02-05 18:48:00,
2013-02-05 12:53:00,30.5,25.0,29.80,SW,214,7.2,7.2,82,0.00,,,0.00,141,TxWx,2013-02-05 18:53:00,
2013-02-05 12:58:00,30.6,25.0,29.80,WSW,258,8.4,8.4,82,0.00,,,0.00,145,TxWx,2013-02-05 18:58:00,
2013-02-05 13:03:00,30.6,25.0,29.80,SW,235,10.8,11.4,82,0.00,,,0.00,171,TxWx,2013-02-05 19:03:00,
2013-02-05 13:08:00,30.8,25.0,29.81,WSW,252,10.8,10.8,82,0.00,,,0.00,161,TxWx,2013-02-05 19:08:00,
2013-02-05 13:13:00,30.9,25.0,29.81,WSW,250,7.5,7.8,82,0.00,,,0.00,126,TxWx,2013-02-05 19:13:00,
2013-02-05 13:19:00,30.9,25.0,29.80,SW,234,9.9,9.9,82,0.00,,,0.00,115,TxWx,2013-02-05 19:19:00,
2013-02-05 13:24:00,30.8,25.0,29.80,SW,230,9.3,9.3,82,0.00,,,0.00,112,TxWx,2013-02-05 19:24:00,
2013-02-05 13:29:00,30.8,25.0,29.80,West,271,10.2,10.2,83,0.00,,,0.00,109,TxWx,2013-02-05 19:29:00,
2013-02-05 13:34:00,30.7,26.0,29.80,SW,235,7.5,8.1,84,0.00,,,0.00,99,TxWx,2013-02-05 19:34:00,
2013-02-05 13:39:00,30.7,26.0,29.80,West,276,5.4,6.0,85,0.00,,,0.00,111,TxWx,2013-02-05 19:39:00,
2013-02-05 13:45:00,30.7,26.0,29.80,West,265,6.9,7.8,85,0.00,,,0.00,99,TxWx,2013-02-05 19:45:00,
2013-02-05 13:50:00,30.4,25.0,29.79,West,259,6.9,8.1,86,0.00,,,0.00,130,TxWx,2013-02-05 19:50:00,
2013-02-05 13:55:00,30.2,26.0,29.79,WSW,244,4.5,5.1,87,0.00,,,0.00,142,TxWx,2013-02-05 19:55:00,
2013-02-05 14:00:00,30.2,26.0,29.79,WSW,255,6.0,6.9,88,0.00,,,0.00,130,TxWx,2013-02-05 20:00:00,
2013-02-05 14:05:00,30.2,26.0,29.79,WSW,242,6.6,6.9,89,0.00,,,0.00,129,TxWx,2013-02-05 20:05:00,
2013-02-05 14:10:00,30.2,26.0,29.80,WSW,257,6.0,6.0,89,0.00,,,0.00,82,TxWx,2013-02-05 20:10:00,
2013-02-05 14:16:00,30.2,26.0,29.80,West,261,7.8,8.1,90,0.00,,,0.00,78,TxWx,2013-02-05 20:16:00,
2013-02-05 14:21:00,30.4,26.0,29.80,West,263,5.7,5.7,90,0.00,,,0.00,65,TxWx,2013-02-05 20:21:00,
2013-02-05 14:26:00,30.4,26.0,29.81,WSW,251,7.2,9.9,90,0.00,,,0.00,66,TxWx,2013-02-05 20:26:00,
2013-02-05 14:31:00,30.6,27.0,29.81,West,267,9.0,9.6,90,0.00,,,0.00,54,TxWx,2013-02-05 20:31:00,
2013-02-05 14:36:00,30.6,27.0,29.81,West,268,10.2,10.2,90,0.00,,,0.00,49,TxWx,2013-02-05 20:36:00,
2013-02-05 14:41:00,30.7,27.0,29.81,West,265,7.2,7.2,89,0.00,,,0.00,47,TxWx,2013-02-05 20:41:00,
2013-02-05 14:46:00,30.8,27.0,29.81,West,263,9.6,10.2,89,0.00,,,0.00,52,TxWx,2013-02-05 20:46:00,
2013-02-05 14:52:00,31.1,27.0,29.82,WSW,254,4.8,4.8,89,0.00,,,0.00,39,TxWx,2013-02-05 20:52:00,
2013-02-05 14:57:00,31.2,27.0,29.82,West,281,5.7,6.0,88,0.00,,,0.00,40,TxWx,2013-02-05 20:57:00,
2013-02-05 15:02:00,30.8,27.0,29.83,NW,319,4.5,4.8,89,0.00,,,0.00,50,TxWx,2013-02-05 21:02:00,
2013-02-05 15:07:00,30.5,27.0,29.83,West,264,5.1,5.1,90,0.00,,,0.00,60,TxWx,2013-02-05 21:07:00,
2013-02-05 15:12:00,30.3,27.0,29.83,West,270,6.9,6.9,91,0.00,,,0.00,82,TxWx,2013-02-05 21:12:00,
2013-02-05 15:18:00,30.1,27.0,29.83,West,276,7.2,8.4,92,0.00,,,0.00,115,TxWx,2013-02-05 21:18:00,
2013-02-05 15:23:00,30.2,27.0,29.83,West,261,3.6,4.2,93,0.00,,,0.00,91,TxWx,2013-02-05 21:23:00,
2013-02-05 15:28:00,30.2,27.0,29.83,WSW,248,4.2,5.7,93,0.00,,,0.00,110,TxWx,2013-02-05 21:28:00,
2013-02-05 15:33:00,30.2,27.0,29.84,West,276,8.4,8.4,93,0.00,,,0.00,117,TxWx,2013-02-05 21:33:00,
2013-02-05 15:38:00,30.1,27.0,29.84,West,270,6.6,7.8,94,0.00,,,0.00,59,TxWx,2013-02-05 21:38:00,
2013-02-05 15:43:00,30.3,27.0,29.84,WNW,283,3.6,3.6,94,0.00,,,0.00,49,TxWx,2013-02-05 21:43:00,
2013-02-05 15:49:00,30.3,28.0,29.84,WNW,297,3.3,3.3,95,0.00,,,0.00,74,TxWx,2013-02-05 21:49:00,
2013-02-05 15:54:00,30.2,28.0,29.84,West,277,5.7,7.2,95,0.00,,,0.00,113,TxWx,2013-02-05 21:54:00,
2013-02-05 15:59:00,30.3,27.0,29.85,West,269,3.0,3.0,94,0.00,,,0.00,114,TxWx,2013-02-05 21:59:00,
2013-02-05 16:05:00,30.4,27.0,29.85,WNW,290,2.7,3.0,94,0.00,,,0.00,60,TxWx,2013-02-05 22:05:00,
2013-02-05 16:10:00,30.3,27.0,29.85,West,270,2.7,3.0,94,0.00,,,0.00,67,TxWx,2013-02-05 22:10:00,
2013-02-05 16:15:00,30.1,27.0,29.85,WNW,293,4.8,5.7,94,0.00,,,0.00,79,TxWx,2013-02-05 22:15:00,
2013-02-05 16:20:00,30.2,27.0,29.85,West,261,3.9,3.9,94,0.00,,,0.00,76,TxWx,2013-02-05 22:20:00,
2013-02-05 16:25:00,30.2,27.0,29.86,WNW,283,4.8,4.8,94,0.00,,,0.00,76,TxWx,2013-02-05 22:25:00,
2013-02-05 16:30:00,30.3,27.0,29.86,WNW,288,3.3,3.3,94,0.00,,,0.00,26,TxWx,2013-02-05 22:30:00,
2013-02-05 16:35:00,30.3,27.0,29.86,WNW,303,4.2,4.2,93,0.00,,,0.00,15,TxWx,2013-02-05 22:35:00,
2013-02-05 16:40:00,30.3,27.0,29.86,West,277,4.8,4.8,94,0.00,,,0.00,9,TxWx,2013-02-05 22:40:00,
2013-02-05 16:45:00,30.3,27.0,29.86,WNW,292,7.2,8.4,94,0.00,,,0.00,5,TxWx,2013-02-05 22:45:00,
2013-02-05 16:51:00,30.3,27.0,29.86,West,273,4.8,5.1,94,0.00,,,0.00,10,TxWx,2013-02-05 22:51:00,
2013-02-05 16:56:00,30.4,27.0,29.86,West,267,1.8,1.8,94,0.00,,,0.00,7,TxWx,2013-02-05 22:56:00,
2013-02-05 17:01:00,30.3,27.0,29.87,WNW,287,1.5,1.8,94,0.00,,,0.00,2,TxWx,2013-02-05 23:01:00,
2013-02-05 17:06:00,30.3,27.0,29.87,NW,315,8.7,9.6,93,0.00,,,0.00,1,TxWx,2013-02-05 23:06:00,
2013-02-05 17:12:00,30.4,27.0,29.87,WNW,286,4.8,5.7,93,0.00,,,0.00,0,TxWx,2013-02-05 23:12:00,
2013-02-05 17:17:00,30.4,27.0,29.88,WNW,284,3.3,3.3,93,0.00,,,0.00,0,TxWx,2013-02-05 23:17:00,
2013-02-05 17:22:00,30.4,27.0,29.88,West,275,3.9,3.9,93,0.00,,,0.00,0,TxWx,2013-02-05 23:22:00,
2013-02-05 17:27:00,30.4,27.0,29.88,WSW,257,3.6,3.6,93,0.00,,,0.00,0,TxWx,2013-02-05 23:27:00,
2013-02-05 17:32:00,30.4,27.0,29.88,WSW,257,5.1,5.4,93,0.00,,,0.00,0,TxWx,2013-02-05 23:32:00,
2013-02-05 17:37:00,30.5,27.0,29.88,West,268,6.3,6.3,93,0.00,,,0.00,0,TxWx,2013-02-05 23:37:00,
2013-02-05 17:42:00,30.6,28.0,29.89,West,275,4.5,4.5,93,0.00,,,0.00,0,TxWx,2013-02-05 23:42:00,
2013-02-05 17:47:00,30.6,28.0,29.89,WNW,297,2.7,2.7,92,0.00,,,0.00,0,TxWx,2013-02-05 23:47:00,
2013-02-05 17:53:00,30.5,28.0,29.89,WNW,296,4.8,4.8,92,0.00,,,0.00,0,TxWx,2013-02-05 23:53:00,
2013-02-05 17:58:00,30.7,28.0,29.89,NW,313,3.6,3.9,91,0.00,,,0.00,0,TxWx,2013-02-05 23:58:00,
2013-02-05 18:03:00,30.6,27.0,29.89,West,263,3.9,5.1,90,0.00,,,0.00,0,TxWx,2013-02-06 00:03:00,
2013-02-05 18:08:00,30.7,27.0,29.90,West,271,6.0,6.0,89,0.00,,,0.00,0,TxWx,2013-02-06 00:08:00,
2013-02-05 18:13:00,30.7,27.0,29.90,West,262,8.4,8.7,89,0.00,,,0.00,0,TxWx,2013-02-06 00:13:00,
2013-02-05 18:18:00,30.7,27.0,29.90,NW,318,4.5,4.5,89,0.00,,,0.00,0,TxWx,2013-02-06 00:18:00,
2013-02-05 18:24:00,30.7,27.0,29.91,WNW,289,6.6,8.1,88,0.00,,,0.00,0,TxWx,2013-02-06 00:24:00,
2013-02-05 18:29:00,30.6,27.0,29.91,WNW,296,10.2,10.2,88,0.00,,,0.00,0,TxWx,2013-02-06 00:29:00,
2013-02-05 18:34:00,30.7,27.0,29.91,WNW,301,9.3,9.3,88,0.00,,,0.00,0,TxWx,2013-02-06 00:34:00,
2013-02-05 18:39:00,30.7,26.0,29.92,WSW,257,3.9,4.8,87,0.00,,,0.00,0,TxWx,2013-02-06 00:39:00,
2013-02-05 18:44:00,30.7,26.0,29.92,WNW,298,4.8,5.4,87,0.00,,,0.00,0,TxWx,2013-02-06 00:44:00,
2013-02-05 18:49:00,30.6,26.0,29.92,NNW,332,7.2,11.1,86,0.00,,,0.00,0,TxWx,2013-02-06 00:49:00,
2013-02-05 18:54:00,30.7,26.0,29.93,WNW,293,5.4,6.0,85,0.00,,,0.00,0,TxWx,2013-02-06 00:54:00,
2013-02-05 19:00:00,30.7,26.0,29.93,NW,310,6.0,6.0,85,0.00,,,0.00,0,TxWx,2013-02-06 01:00:00,
2013-02-05 19:05:00,30.7,26.0,29.93,NW,317,5.4,5.4,85,0.00,,,0.00,0,TxWx,2013-02-06 01:05:00,
2013-02-05 19:10:00,30.7,26.0,29.94,NW,322,3.0,3.3,85,0.00,,,0.00,0,TxWx,2013-02-06 01:10:00,
2013-02-05 19:15:00,30.6,26.0,29.94,NW,320,6.9,7.2,85,0.00,,,0.00,0,TxWx,2013-02-06 01:15:00,
2013-02-05 19:21:00,30.5,26.0,29.95,WNW,286,8.1,8.4,84,0.00,,,0.00,0,TxWx,2013-02-06 01:21:00,
2013-02-05 19:26:00,30.5,25.0,29.95,NNW,328,5.4,5.4,84,0.00,,,0.00,0,TxWx,2013-02-06 01:26:00,
2013-02-05 19:31:00,30.4,25.0,29.95,West,271,3.3,3.9,84,0.00,,,0.00,0,TxWx,2013-02-06 01:31:00,
2013-02-05 19:36:00,30.3,25.0,29.96,North,359,3.0,3.9,84,0.00,,,0.00,0,TxWx,2013-02-06 01:36:00,
2013-02-05 19:41:00,30.1,25.0,29.96,North,7,4.2,5.1,84,0.00,,,0.00,0,TxWx,2013-02-06 01:41:00,
2013-02-05 19:46:00,30.0,25.0,29.96,NW,313,7.8,8.4,84,0.00,,,0.00,0,TxWx,2013-02-06 01:46:00,
2013-02-05 19:52:00,30.0,25.0,29.96,NW,315,8.4,9.6,84,0.00,,,0.00,0,TxWx,2013-02-06 01:52:00,
2013-02-05 19:57:00,30.0,25.0,29.96,NW,319,3.3,3.3,84,0.00,,,0.00,0,TxWx,2013-02-06 01:57:00,
2013-02-05 20:02:00,29.8,25.0,29.97,NNW,328,4.8,4.8,84,0.00,,,0.00,0,TxWx,2013-02-06 02:02:00,
2013-02-05 20:07:00,29.6,25.0,29.97,West,274,8.7,8.7,84,0.00,,,0.00,0,TxWx,2013-02-06 02:07:00,
2013-02-05 20:12:00,29.4,24.0,29.98,NNW,344,7.5,8.1,84,0.00,,,0.00,0,TxWx,2013-02-06 02:12:00,
2013-02-05 20:17:00,29.3,24.0,29.98,WNW,302,6.3,7.8,85,0.00,,,0.00,0,TxWx,2013-02-06 02:17:00,
2013-02-05 20:22:00,29.4,24.0,29.98,NW,315,11.1,11.1,85,0.00,,,0.00,0,TxWx,2013-02-06 02:22:00,
2013-02-05 20:27:00,29.3,24.0,29.98,NW,325,5.1,5.7,84,0.00,,,0.00,0,TxWx,2013-02-06 02:27:00,
2013-02-05 20:32:00,29.3,23.0,29.98,NW,306,10.5,10.5,83,0.00,,,0.00,0,TxWx,2013-02-06 02:32:00,
2013-02-05 20:38:00,29.4,23.0,29.99,NNW,346,3.6,3.6,82,0.00,,,0.00,0,TxWx,2013-02-06 02:38:00,
2013-02-05 20:43:00,29.4,23.0,29.99,NNW,336,2.4,2.7,82,0.00,,,0.00,0,TxWx,2013-02-06 02:43:00,
2013-02-05 20:48:00,29.4,23.0,29.99,NW,304,5.1,5.1,81,0.00,,,0.00,0,TxWx,2013-02-06 02:48:00,
2013-02-05 20:53:00,29.4,22.0,30.00,NNW,333,9.3,11.7,79,0.00,,,0.00,0,TxWx,2013-02-06 02:53:00,
2013-02-05 20:58:00,29.4,22.0,30.00,North,351,4.2,5.1,79,0.00,,,0.00,0,TxWx,2013-02-06 02:58:00,
2013-02-05 21:04:00,29.3,22.0,30.00,West,278,3.0,3.9,79,0.00,,,0.00,0,TxWx,2013-02-06 03:04:00,
2013-02-05 21:09:00,29.3,22.0,30.00,NW,323,9.6,9.9,78,0.00,,,0.00,0,TxWx,2013-02-06 03:09:00,
2013-02-05 21:14:00,29.3,22.0,30.00,NW,322,6.0,6.6,78,0.00,,,0.00,0,TxWx,2013-02-06 03:14:00,
2013-02-05 21:19:00,29.2,22.0,30.00,NW,322,8.7,8.7,77,0.00,,,0.00,0,TxWx,2013-02-06 03:19:00,
2013-02-05 21:24:00,29.2,22.0,30.01,WNW,302,5.1,5.7,77,0.00,,,0.00,0,TxWx,2013-02-06 03:24:00,
2013-02-05 21:29:00,29.1,21.0,30.01,WNW,298,3.0,3.0,76,0.00,,,0.00,0,TxWx,2013-02-06 03:29:00,
2013-02-05 21:34:00,29.1,21.0,30.01,West,272,3.6,3.6,76,0.00,,,0.00,0,TxWx,2013-02-06 03:34:00,
2013-02-05 21:39:00,29.1,21.0,30.01,WNW,292,5.1,5.4,76,0.00,,,0.00,0,TxWx,2013-02-06 03:39:00,
2013-02-05 21:45:00,29.0,21.0,30.01,NW,326,6.0,6.9,76,0.00,,,0.00,0,TxWx,2013-02-06 03:45:00,
2013-02-05 21:50:00,29.0,21.0,30.01,NNE,25,3.0,3.0,76,0.00,,,0.00,0,TxWx,2013-02-06 03:50:00,
2013-02-05 21:55:00,29.0,21.0,30.02,NNW,334,6.9,6.9,76,0.00,,,0.00,0,TxWx,2013-02-06 03:55:00,
2013-02-05 22:00:00,29.0,21.0,30.02,WNW,301,5.4,6.9,76,0.00,,,0.00,0,TxWx,2013-02-06 04:00:00,
2013-02-05 22:05:00,29.0,21.0,30.02,WNW,302,3.3,3.3,76,0.00,,,0.00,0,TxWx,2013-02-06 04:05:00,
2013-02-05 22:10:00,29.1,22.0,30.01,North,350,3.6,3.6,77,0.00,,,0.00,0,TxWx,2013-02-06 04:10:00,
2013-02-05 22:15:00,29.1,22.0,30.02,West,280,3.3,4.5,77,0.00,,,0.00,0,TxWx,2013-02-06 04:15:00,
2013-02-05 22:21:00,29.1,21.0,30.02,WNW,299,3.6,3.6,76,0.00,,,0.00,0,TxWx,2013-02-06 04:21:00,
2013-02-05 22:26:00,29.1,21.0,30.02,North,350,5.4,5.4,76,0.00,,,0.00,0,TxWx,2013-02-06 04:26:00,
2013-02-05 22:31:00,29.2,21.0,30.02,NW,318,4.2,4.2,76,0.00,,,0.00,0,TxWx,2013-02-06 04:31:00,
2013-02-05 22:36:00,29.2,21.0,30.02,WNW,286,4.8,4.8,76,0.00,,,0.00,0,TxWx,2013-02-06 04:36:00,
2013-02-05 22:41:00,29.3,21.0,30.02,NNW,327,1.8,1.8,76,0.00,,,0.00,0,TxWx,2013-02-06 04:41:00,
2013-02-05 22:46:00,29.2,21.0,30.02,NW,309,5.1,5.7,75,0.00,,,0.00,0,TxWx,2013-02-06 04:46:00,
2013-02-05 22:52:00,29.4,21.0,30.02,NNW,340,2.4,2.7,75,0.00,,,0.00,0,TxWx,2013-02-06 04:52:00,
2013-02-05 22:57:00,29.3,21.0,30.03,North,359,3.6,3.6,75,0.00,,,0.00,0,TxWx,2013-02-06 04:57:00,
2013-02-05 23:00:00,29.3,21.0,30.03,NW,313,8.1,8.4,75,0.00,,,0.00,0,TxWx,2013-02-06 05:00:00,
2013-02-05 23:03:00,29.4,21.0,30.03,WNW,298,2.7,2.7,76,0.00,,,0.00,0,TxWx,2013-02-06 05:03:00,
2013-02-05 23:08:00,29.3,21.0,30.03,WNW,295,6.3,7.2,75,0.00,,,0.00,0,TxWx,2013-02-06 05:08:00,
2013-02-05 23:14:00,29.4,21.0,30.04,NNW,337,4.2,4.5,75,0.00,,,0.00,0,TxWx,2013-02-06 05:14:00,
2013-02-05 23:19:00,29.5,21.0,30.04,NNW,339,1.5,1.8,74,0.00,,,0.00,0,TxWx,2013-02-06 05:19:00,
2013-02-05 23:24:00,29.5,21.0,30.04,NNW,331,4.8,5.7,74,0.00,,,0.00,0,TxWx,2013-02-06 05:24:00,
2013-02-05 23:29:00,29.5,22.0,30.05,NNW,340,3.6,3.9,74,0.00,,,0.00,0,TxWx,2013-02-06 05:29:00,
2013-02-05 23:35:00,29.5,22.0,30.05,NNW,338,2.1,2.1,74,0.00,,,0.00,0,TxWx,2013-02-06 05:35:00,
2013-02-05 23:40:00,29.5,21.0,30.05,North,351,5.1,5.1,75,0.00,,,0.00,0,TxWx,2013-02-06 05:40:00,
2013-02-05 23:45:00,29.5,21.0,30.05,NNW,339,3.0,3.0,74,0.00,,,0.00,0,TxWx,2013-02-06 05:45:00,
2013-02-05 23:50:00,29.5,21.0,30.05,NW,305,4.2,4.2,75,0.00,,,0.00,0,TxWx,2013-02-06 05:50:00,
2013-02-05 23:55:00,29.5,21.0,30.06,WNW,286,2.4,3.0,75,0.00,,,0.00,0,TxWx,2013-02-06 05:55:00,